aviador You're here:

OITT Decoded Metar

TABRIZ in IRAN
Report Time2017-11-24 18:00:00
UTC Time2017-11-24 18:35:54
Flight Rules mvfr MVFR
Wind060° at 06 kt
W.Decomp.*RWY 12: 2.5 kt HW 5.4 kt LCW
W.Rank060° ranks 1
Current wind is below 060° avg. (7.6)
Visibility9999 m
Phenomena:N/A
Clouds:Broken 028 Hf
Expected CloudBase > 1,200 ft AGL from Temp-Dew spread
Ceiling2,800 ft
Temp-6°C (ISA -12)
Dew Point-9°C (80% RH)
AAT-11.1°C
QNH1020 hPa
Density Alt2,799 ft
Elevation4,465 ft
Report Wrong Elevation
Raw Report
OITT 241800Z 06006KT 9999 BKN028 M06/M09 Q1020 A3012 NOSIG=

Extra information for OITT:More info

Metar Taf Metar & Taf Last 4 Metars F.Rules Stats Wind Profile Meteogram Temp Stats Airport Information Weather charts Add Link Nearby VenuesMetar ALERT Operation Metar Decoded Social comments